createdAt,value
2019-03-31T00:01:33.366Z,69.27
2019-03-31T00:04:03.075Z,69.00
2019-03-31T00:06:32.826Z,69.07
2019-03-31T00:09:02.592Z,69.40
2019-03-31T00:11:34.135Z,69.41
2019-03-31T00:14:04.247Z,69.56
2019-03-31T00:16:34.310Z,69.08
2019-03-31T00:19:04.144Z,68.77
2019-03-31T00:21:33.879Z,68.59
2019-03-31T00:24:03.650Z,68.41
2019-03-31T00:26:33.449Z,68.38
2019-03-31T00:29:03.192Z,68.29
2019-03-31T00:31:32.959Z,68.52
2019-03-31T00:34:02.801Z,68.87
2019-03-31T00:36:32.531Z,69.57
2019-03-31T00:39:02.439Z,69.33
2019-03-31T00:41:33.778Z,69.91
2019-03-31T00:44:03.614Z,69.98
2019-03-31T00:46:33.390Z,70.43
2019-03-31T00:49:03.122Z,68.71
2019-03-31T00:51:32.853Z,67.00
2019-03-31T00:54:02.724Z,67.08
2019-03-31T00:56:34.039Z,67.66
2019-03-31T00:59:03.830Z,68.02
2019-03-31T01:01:38.336Z,69.03
2019-03-31T01:04:09.917Z,68.96
2019-03-31T01:06:40.234Z,68.95
2019-03-31T01:09:26.060Z,69.44
2019-03-31T01:11:57.570Z,69.67
2019-03-31T01:14:29.067Z,69.98
2019-03-31T01:16:59.997Z,69.15
2019-03-31T01:19:31.364Z,68.88
2019-03-31T01:22:01.299Z,68.27
2019-03-31T01:24:31.070Z,68.99
2019-03-31T01:27:00.914Z,69.47
2019-03-31T01:29:31.898Z,69.64
2019-03-31T01:32:01.854Z,68.06
2019-03-31T01:34:31.601Z,68.45
2019-03-31T01:37:01.588Z,68.19
2019-03-31T01:39:31.825Z,67.64
2019-03-31T01:42:01.591Z,68.24
2019-03-31T01:44:32.042Z,66.31
2019-03-31T01:47:01.778Z,64.32
2019-03-31T01:49:31.721Z,64.17
2019-03-31T01:52:01.454Z,64.93
2019-03-31T01:54:31.190Z,65.76
2019-03-31T01:57:01.034Z,67.58
2019-03-31T01:59:30.786Z,67.25
2019-03-31T02:02:04.415Z,68.10
2019-03-31T02:07:24.793Z,70.08
2019-03-31T02:09:54.539Z,71.09
2019-03-31T02:12:24.280Z,71.82
2019-03-31T02:14:54.046Z,72.20
2019-03-31T02:17:23.808Z,72.86
2019-03-31T02:19:53.560Z,72.94
2019-03-31T02:22:23.340Z,72.20
2019-03-31T02:24:53.063Z,72.42
2019-03-31T02:27:22.827Z,71.68
2019-03-31T02:29:52.608Z,72.19
2019-03-31T02:32:24.493Z,72.03
2019-03-31T02:34:53.892Z,72.78
2019-03-31T02:37:23.678Z,72.78
2019-03-31T02:39:53.412Z,73.55
2019-03-31T02:42:23.160Z,72.52
2019-03-31T02:44:53.262Z,72.00
2019-03-31T02:47:23.107Z,72.00
2019-03-31T02:49:53.238Z,71.42
2019-03-31T02:52:23.033Z,70.89
2019-03-31T02:54:54.687Z,70.67
2019-03-31T02:57:24.824Z,70.91
2019-03-31T02:59:55.888Z,68.77
2019-03-31T03:02:41.358Z,67.66
2019-03-31T03:05:17.663Z,67.04
2019-03-31T03:07:35.170Z,67.10
2019-03-31T03:10:06.778Z,69.51
2019-03-31T03:12:38.152Z,69.51
2019-03-31T03:15:08.142Z,69.85
2019-03-31T03:17:37.914Z,69.85
2019-03-31T03:20:07.771Z,70.13
2019-03-31T03:22:37.557Z,68.01
2019-03-31T03:25:07.607Z,67.32
2019-03-31T03:27:37.361Z,69.68
2019-03-31T03:30:09.395Z,69.68
2019-03-31T03:32:39.296Z,68.78
2019-03-31T03:35:09.046Z,68.22
2019-03-31T03:37:39.542Z,68.56
2019-03-31T03:40:09.297Z,69.12
2019-03-31T03:42:39.032Z,70.06
2019-03-31T03:45:09.196Z,70.25
2019-03-31T03:47:38.956Z,70.25
2019-03-31T03:50:08.750Z,69.79
2019-03-31T03:52:38.548Z,69.47
2019-03-31T03:55:08.408Z,69.17
2019-03-31T03:57:38.149Z,67.25
2019-03-31T04:00:09.943Z,64.93
2019-03-31T04:02:39.679Z,64.44
2019-03-31T04:05:09.527Z,63.52
2019-03-31T04:07:40.296Z,63.52
2019-03-31T04:10:18.491Z,64.91
2019-03-31T04:12:48.512Z,64.91
2019-03-31T04:15:18.317Z,65.60
2019-03-31T04:17:48.367Z,65.83
2019-03-31T04:20:18.238Z,66.94
2019-03-31T04:22:48.134Z,67.01
2019-03-31T04:25:19.514Z,67.07
2019-03-31T04:27:49.353Z,67.65
2019-03-31T04:30:19.100Z,68.07
2019-03-31T04:32:49.029Z,67.75
2019-03-31T04:35:18.759Z,68.46
2019-03-31T04:37:48.614Z,68.37
2019-03-31T04:40:18.386Z,68.40
2019-03-31T04:42:48.197Z,69.32
2019-03-31T04:45:18.132Z,69.65
2019-03-31T04:47:47.989Z,69.79
2019-03-31T04:50:17.718Z,70.30
2019-03-31T04:52:47.556Z,70.57
2019-03-31T04:55:17.373Z,70.48
2019-03-31T04:57:47.186Z,70.21
2019-03-31T05:00:17.168Z,71.89
2019-03-31T05:02:46.934Z,71.89
2019-03-31T05:05:16.680Z,72.82
2019-03-31T05:07:46.432Z,72.60
2019-03-31T05:10:17.300Z,72.45
2019-03-31T05:12:47.040Z,73.18
2019-03-31T05:15:17.039Z,69.83
2019-03-31T05:17:46.819Z,69.83
2019-03-31T05:20:16.961Z,67.70
2019-03-31T05:22:46.744Z,65.66
2019-03-31T05:25:16.501Z,64.67
2019-03-31T05:27:46.337Z,63.32
2019-03-31T05:33:11.867Z,64.03
2019-03-31T05:35:41.610Z,62.90
2019-03-31T05:38:11.341Z,59.29
2019-03-31T05:40:41.112Z,61.88
2019-03-31T05:43:10.851Z,61.25
2019-03-31T05:45:40.613Z,60.67
2019-03-31T05:48:10.484Z,60.30
2019-03-31T05:50:40.220Z,62.31
2019-03-31T05:53:10.132Z,60.97
2019-03-31T05:55:39.925Z,59.79
2019-03-31T05:58:09.676Z,59.62
2019-03-31T06:00:41.081Z,57.57
2019-03-31T06:03:12.426Z,57.52
2019-03-31T06:05:42.196Z,57.26
2019-03-31T06:08:12.058Z,54.55
2019-03-31T06:10:41.838Z,52.00
2019-03-31T06:13:11.623Z,53.66
2019-03-31T06:15:41.367Z,52.81
2019-03-31T06:18:12.977Z,52.28
2019-03-31T06:20:42.740Z,51.80
2019-03-31T06:23:13.522Z,51.03
2019-03-31T06:25:43.299Z,50.49
2019-03-31T06:28:13.031Z,49.75
2019-03-31T06:30:42.796Z,50.14
2019-03-31T06:33:12.637Z,49.34
2019-03-31T06:35:42.383Z,49.66
2019-03-31T06:38:12.131Z,48.22
2019-03-31T06:40:43.304Z,48.62
2019-03-31T06:43:22.758Z,47.59
2019-03-31T06:45:52.535Z,47.72
2019-03-31T06:48:22.272Z,47.49
2019-03-31T06:50:52.086Z,47.63
2019-03-31T06:53:22.210Z,46.02
2019-03-31T06:55:51.951Z,45.73
2019-03-31T06:58:21.698Z,46.29
2019-03-31T07:00:51.475Z,46.79
2019-03-31T07:03:21.224Z,46.29
2019-03-31T07:05:50.991Z,46.64
2019-03-31T07:08:20.784Z,43.83
2019-03-31T07:10:50.535Z,44.46
2019-03-31T07:13:20.277Z,44.27
2019-03-31T07:15:50.051Z,44.04
2019-03-31T07:18:19.801Z,42.93
2019-03-31T07:20:49.883Z,43.34
2019-03-31T07:23:19.664Z,42.75
2019-03-31T07:25:49.414Z,42.33
2019-03-31T07:28:20.093Z,41.65
2019-03-31T07:30:49.872Z,41.17
2019-03-31T07:33:19.725Z,41.31
2019-03-31T07:35:49.464Z,42.18
2019-03-31T07:38:19.644Z,39.82
2019-03-31T07:40:49.721Z,38.85
2019-03-31T07:43:19.572Z,39.10
2019-03-31T07:45:49.472Z,38.33
2019-03-31T07:48:19.558Z,38.95
2019-03-31T07:53:47.013Z,38.03
2019-03-31T07:56:16.755Z,38.86
2019-03-31T07:58:46.480Z,38.34
2019-03-31T08:01:16.275Z,38.32
2019-03-31T08:03:47.608Z,39.04
2019-03-31T08:06:17.389Z,41.88
2019-03-31T08:08:47.138Z,39.41
2019-03-31T08:11:17.373Z,39.27
2019-03-31T08:19:37.439Z,36.48
2019-03-31T08:22:07.183Z,37.63
2019-03-31T08:24:43.851Z,37.55
2019-03-31T08:27:16.340Z,34.57
2019-03-31T08:29:56.998Z,33.52
2019-03-31T08:32:19.150Z,33.79
2019-03-31T08:34:48.933Z,33.19
2019-03-31T08:37:18.678Z,33.58
2019-03-31T08:39:48.431Z,33.55
2019-03-31T08:42:18.201Z,32.45
2019-03-31T08:44:47.946Z,32.36
2019-03-31T08:47:17.719Z,31.61
2019-03-31T08:49:48.308Z,29.67
2019-03-31T08:52:18.047Z,29.90
2019-03-31T08:54:48.933Z,30.40
2019-03-31T08:57:19.276Z,30.04
2019-03-31T08:59:49.061Z,27.99
2019-03-31T09:02:23.513Z,29.20
2019-03-31T09:04:54.902Z,27.12
2019-03-31T09:07:24.699Z,27.01
2019-03-31T09:09:55.541Z,28.40
2019-03-31T09:12:25.335Z,27.44
2019-03-31T09:14:55.102Z,28.06
2019-03-31T09:17:25.780Z,28.79
2019-03-31T09:19:57.147Z,26.35
2019-03-31T09:22:26.893Z,27.74
2019-03-31T09:24:56.656Z,26.63
2019-03-31T09:27:26.440Z,26.02
2019-03-31T09:29:57.881Z,25.51
2019-03-31T09:32:27.762Z,24.81
2019-03-31T09:34:57.567Z,26.43
2019-03-31T09:37:27.311Z,24.37
2019-03-31T09:39:57.193Z,24.31
2019-03-31T09:42:26.928Z,23.99
2019-03-31T09:44:57.370Z,23.76
2019-03-31T09:47:27.438Z,24.07
2019-03-31T09:49:57.190Z,24.81
2019-03-31T09:52:26.967Z,23.06
2019-03-31T09:54:56.749Z,23.89
2019-03-31T09:57:26.492Z,25.08
2019-03-31T09:59:57.770Z,25.36
2019-03-31T10:02:27.511Z,24.51
2019-03-31T10:04:57.256Z,24.55
2019-03-31T10:07:27.242Z,24.38
2019-03-31T10:09:57.496Z,24.75
2019-03-31T10:12:27.647Z,25.74
2019-03-31T10:14:57.389Z,23.98
2019-03-31T10:17:27.259Z,24.48
2019-03-31T10:19:57.004Z,21.95
2019-03-31T10:22:28.127Z,22.57
2019-03-31T10:24:58.047Z,23.65
2019-03-31T10:27:27.810Z,22.87
2019-03-31T10:29:57.601Z,23.63
2019-03-31T10:32:27.346Z,22.51
2019-03-31T10:34:57.111Z,24.16
2019-03-31T10:37:26.891Z,23.51
2019-03-31T10:39:56.682Z,22.98
2019-03-31T10:42:26.430Z,23.71
2019-03-31T10:44:56.231Z,21.98
2019-03-31T10:47:26.002Z,21.75
2019-03-31T10:49:55.748Z,22.70
2019-03-31T10:52:25.531Z,24.13
2019-03-31T10:54:55.151Z,23.08
2019-03-31T10:57:27.249Z,23.23
2019-03-31T11:00:16.738Z,25.18
2019-03-31T11:02:47.825Z,22.47
2019-03-31T11:05:41.234Z,21.38
2019-03-31T11:08:19.631Z,21.67
2019-03-31T11:11:01.053Z,23.39
2019-03-31T11:13:49.638Z,24.83
2019-03-31T11:16:31.775Z,22.34
2019-03-31T11:19:19.273Z,20.86
2019-03-31T11:22:06.328Z,20.29
2019-03-31T11:24:40.029Z,21.65
2019-03-31T11:27:14.247Z,20.71
2019-03-31T11:30:07.998Z,21.88
2019-03-31T11:32:37.175Z,23.78
2019-03-31T11:35:21.819Z,22.94
2019-03-31T11:40:57.858Z,21.19
2019-03-31T11:43:28.112Z,21.26
2019-03-31T11:46:17.984Z,21.95
2019-03-31T11:48:49.390Z,20.70
2019-03-31T11:51:31.619Z,20.29
2019-03-31T11:54:09.844Z,20.75
2019-03-31T11:56:49.202Z,20.64
2019-03-31T11:59:25.390Z,20.41
2019-03-31T12:02:25.912Z,20.59
2019-03-31T12:04:43.389Z,20.19
2019-03-31T12:07:45.725Z,20.73
2019-03-31T12:10:24.158Z,20.94
2019-03-31T12:13:20.826Z,21.43
2019-03-31T12:15:58.653Z,21.21
2019-03-31T12:18:36.376Z,21.62
2019-03-31T12:21:12.842Z,20.79
2019-03-31T12:23:55.965Z,21.70
2019-03-31T12:26:29.461Z,23.59
2019-03-31T12:29:15.646Z,22.65
2019-03-31T12:32:02.081Z,21.68
2019-03-31T12:34:43.484Z,22.28
2019-03-31T12:37:21.242Z,22.31
2019-03-31T12:39:52.096Z,22.93
2019-03-31T12:42:21.941Z,22.12
2019-03-31T12:44:51.705Z,22.32
2019-03-31T12:47:22.103Z,21.91
2019-03-31T12:49:52.355Z,22.51
2019-03-31T12:52:22.100Z,23.26
2019-03-31T12:54:51.900Z,23.85
2019-03-31T12:57:21.612Z,22.65
2019-03-31T12:59:52.959Z,24.12
2019-03-31T13:02:22.850Z,24.35
2019-03-31T13:04:52.802Z,24.42
2019-03-31T13:07:22.664Z,24.43
2019-03-31T13:09:53.698Z,24.06
2019-03-31T13:12:23.476Z,23.24
2019-03-31T13:14:53.602Z,24.92
2019-03-31T13:17:25.410Z,24.54
2019-03-31T13:19:56.866Z,25.29
2019-03-31T13:22:26.637Z,24.97
2019-03-31T13:24:56.380Z,25.24
2019-03-31T13:27:26.174Z,25.09
2019-03-31T13:29:55.960Z,24.07
2019-03-31T13:32:25.708Z,23.63
2019-03-31T13:34:55.455Z,25.22
2019-03-31T13:37:25.256Z,26.13
2019-03-31T13:39:55.054Z,25.34
2019-03-31T13:42:24.816Z,24.08
2019-03-31T13:44:54.654Z,23.64
2019-03-31T13:47:24.400Z,23.74
2019-03-31T13:49:54.180Z,23.14
2019-03-31T13:52:23.948Z,22.56
2019-03-31T13:54:54.086Z,23.29
2019-03-31T13:57:24.507Z,23.58
2019-03-31T13:59:54.963Z,24.44
2019-03-31T14:02:25.296Z,23.17
2019-03-31T14:04:56.890Z,23.83
2019-03-31T14:07:26.767Z,24.29
2019-03-31T14:09:57.260Z,23.85
2019-03-31T14:12:27.047Z,22.07
2019-03-31T14:14:56.794Z,21.91
2019-03-31T14:17:26.643Z,22.35
2019-03-31T14:19:56.451Z,21.61
2019-03-31T14:22:26.208Z,22.66
2019-03-31T14:24:57.277Z,24.34
2019-03-31T14:27:27.120Z,25.08
2019-03-31T14:29:58.131Z,23.81
2019-03-31T14:32:28.874Z,24.17
2019-03-31T14:34:58.715Z,25.33
2019-03-31T14:37:29.486Z,26.43
2019-03-31T14:39:59.229Z,27.50
2019-03-31T14:42:29.001Z,28.13
2019-03-31T14:44:58.796Z,28.61
2019-03-31T14:47:28.631Z,28.29
2019-03-31T14:49:58.503Z,29.23
2019-03-31T14:52:28.323Z,29.60
2019-03-31T14:54:58.053Z,29.92
2019-03-31T14:57:27.841Z,30.64
2019-03-31T14:59:57.627Z,29.22
2019-03-31T15:02:27.356Z,29.96
2019-03-31T15:04:57.161Z,29.95
2019-03-31T15:07:26.945Z,29.81
2019-03-31T15:09:56.757Z,29.56
2019-03-31T15:12:26.500Z,29.87
2019-03-31T15:14:56.732Z,30.05
2019-03-31T15:17:26.477Z,30.60
2019-03-31T15:19:56.268Z,30.70
2019-03-31T15:22:26.086Z,30.97
2019-03-31T15:24:55.965Z,30.86
2019-03-31T15:27:25.710Z,32.03
2019-03-31T15:29:55.488Z,31.09
2019-03-31T15:32:26.230Z,30.37
2019-03-31T15:34:56.299Z,30.78
2019-03-31T15:37:26.080Z,31.50
2019-03-31T15:39:56.638Z,32.07
2019-03-31T15:42:27.789Z,32.26
2019-03-31T15:44:57.579Z,32.34
2019-03-31T15:47:27.305Z,32.05
2019-03-31T15:49:57.054Z,32.46
2019-03-31T15:52:26.831Z,32.00
2019-03-31T15:54:56.576Z,31.68
2019-03-31T15:57:26.442Z,31.73
2019-03-31T15:59:56.211Z,31.66
2019-03-31T16:02:27.516Z,31.55
2019-03-31T16:04:57.316Z,32.53
2019-03-31T16:07:27.221Z,32.96
2019-03-31T16:09:56.959Z,32.16
2019-03-31T16:12:26.692Z,32.70
2019-03-31T16:14:56.483Z,32.56
2019-03-31T16:17:26.268Z,32.39
2019-03-31T16:19:56.620Z,32.92
2019-03-31T16:22:26.388Z,33.47
2019-03-31T16:24:57.683Z,33.57
2019-03-31T16:27:27.480Z,33.35
2019-03-31T16:29:57.918Z,33.20
2019-03-31T16:32:27.708Z,33.14
2019-03-31T16:34:57.457Z,33.29
2019-03-31T16:37:27.237Z,33.42
2019-03-31T16:39:57.016Z,33.31
2019-03-31T16:42:27.765Z,33.84
2019-03-31T16:44:58.676Z,34.04
2019-03-31T16:47:28.736Z,33.57
2019-03-31T16:49:58.488Z,33.72
2019-03-31T16:52:28.231Z,34.26
2019-03-31T16:54:59.101Z,34.40
2019-03-31T16:57:29.328Z,34.35
2019-03-31T16:59:59.875Z,34.32
2019-03-31T17:02:31.486Z,34.92
2019-03-31T17:05:01.223Z,34.44
2019-03-31T17:07:31.268Z,35.11
2019-03-31T17:10:01.029Z,34.62
2019-03-31T17:12:31.012Z,35.12
2019-03-31T17:15:00.810Z,34.86
2019-03-31T17:17:30.584Z,35.46
2019-03-31T17:20:00.505Z,35.34
2019-03-31T17:22:30.251Z,35.61
2019-03-31T17:25:03.256Z,35.72
2019-03-31T17:27:33.001Z,36.10
2019-03-31T17:30:02.733Z,36.61
2019-03-31T17:32:33.802Z,36.59
2019-03-31T17:35:04.143Z,36.69
2019-03-31T17:37:35.221Z,37.11
2019-03-31T17:40:07.283Z,37.08
2019-03-31T17:42:37.126Z,37.78
2019-03-31T17:45:09.015Z,37.83
2019-03-31T17:47:38.887Z,37.78
2019-03-31T17:50:08.817Z,37.98
2019-03-31T17:52:38.564Z,38.31
2019-03-31T17:55:08.474Z,38.63
2019-03-31T17:57:38.230Z,38.57
2019-03-31T18:00:12.066Z,38.36
2019-03-31T18:02:42.395Z,38.33
2019-03-31T18:05:12.204Z,38.18
2019-03-31T18:07:41.985Z,37.95
2019-03-31T18:10:20.604Z,37.68
2019-03-31T18:12:43.532Z,37.41
2019-03-31T18:15:13.490Z,37.85
2019-03-31T18:17:44.636Z,37.60
2019-03-31T18:20:14.512Z,37.92
2019-03-31T18:22:44.254Z,37.90
2019-03-31T18:25:14.430Z,37.90
2019-03-31T18:27:44.250Z,38.10
2019-03-31T18:30:14.569Z,37.99
2019-03-31T18:32:44.316Z,37.88
2019-03-31T18:35:16.727Z,38.05
2019-03-31T18:37:45.773Z,38.11
2019-03-31T18:40:15.679Z,38.29
2019-03-31T18:42:45.525Z,38.51
2019-03-31T18:45:16.624Z,38.67
2019-03-31T18:47:46.469Z,39.00
2019-03-31T18:50:16.418Z,39.35
2019-03-31T18:52:46.251Z,39.36
2019-03-31T19:20:50.657Z,40.84
2019-03-31T19:23:24.940Z,41.64
2019-03-31T19:25:56.296Z,41.90
2019-03-31T19:28:27.608Z,41.43
2019-03-31T19:30:59.953Z,41.33
2019-03-31T19:33:34.439Z,41.38
2019-03-31T19:36:05.795Z,41.90
2019-03-31T19:38:55.202Z,42.58
2019-03-31T19:41:29.555Z,42.93
2019-03-31T19:44:03.599Z,42.90
2019-03-31T19:46:35.171Z,43.14
2019-03-31T19:49:06.466Z,43.58
2019-03-31T19:51:45.046Z,43.68
2019-03-31T19:54:16.703Z,43.76
2019-03-31T19:56:56.799Z,43.89
2019-03-31T19:59:34.231Z,44.44
2019-03-31T20:02:06.993Z,46.10
2019-03-31T20:04:50.302Z,47.33
2019-03-31T20:07:24.930Z,47.83
2019-03-31T20:09:56.630Z,46.04
2019-03-31T20:12:32.248Z,45.08
2019-03-31T20:15:19.973Z,44.77
2019-03-31T20:20:49.306Z,45.67
2019-03-31T20:23:29.624Z,47.11
2019-03-31T20:26:19.129Z,48.67
2019-03-31T20:28:50.506Z,46.94
2019-03-31T20:31:39.229Z,46.29
2019-03-31T20:34:13.713Z,46.52
2019-03-31T20:36:48.101Z,47.26
2019-03-31T20:39:35.951Z,47.75
2019-03-31T20:42:10.471Z,49.62
2019-03-31T20:44:40.215Z,51.37
2019-03-31T20:47:09.952Z,52.47
2019-03-31T20:49:39.801Z,53.27
2019-03-31T20:52:10.035Z,53.06
2019-03-31T20:54:39.814Z,53.94
2019-03-31T20:57:09.588Z,55.26
2019-03-31T20:59:39.428Z,54.15
2019-03-31T21:02:09.185Z,53.98
2019-03-31T21:04:38.955Z,54.31
2019-03-31T21:07:10.140Z,55.18
2019-03-31T21:09:45.260Z,54.44
2019-03-31T21:12:12.097Z,54.01
2019-03-31T21:14:43.375Z,54.01
2019-03-31T21:17:14.082Z,54.41
2019-03-31T21:19:43.862Z,55.71
2019-03-31T21:22:13.604Z,56.38
2019-03-31T21:24:43.429Z,57.16
2019-03-31T21:27:13.204Z,58.85
2019-03-31T21:29:42.953Z,59.81
2019-03-31T21:32:12.682Z,58.70
2019-03-31T21:34:42.474Z,58.52
2019-03-31T21:37:13.205Z,58.02
2019-03-31T21:39:42.992Z,57.61
2019-03-31T21:42:12.732Z,57.81
2019-03-31T21:44:42.496Z,58.00
2019-03-31T21:47:12.295Z,58.12
2019-03-31T21:49:42.039Z,59.20
2019-03-31T21:52:11.786Z,57.96
2019-03-31T21:54:41.577Z,56.08
2019-03-31T21:57:11.309Z,55.87
2019-03-31T21:59:41.122Z,55.92
2019-03-31T22:02:10.904Z,55.95
2019-03-31T22:04:40.636Z,55.16
2019-03-31T22:07:10.805Z,54.67
2019-03-31T22:09:40.581Z,53.73
2019-03-31T22:12:10.340Z,53.45
2019-03-31T22:14:40.105Z,53.51
2019-03-31T22:17:09.875Z,53.26
2019-03-31T22:19:39.733Z,53.47
2019-03-31T22:22:09.473Z,53.78
2019-03-31T22:24:39.392Z,54.01
2019-03-31T22:27:10.123Z,54.06
2019-03-31T22:29:40.915Z,54.57
2019-03-31T22:32:10.676Z,54.93
2019-03-31T22:34:40.439Z,54.35
2019-03-31T22:37:10.408Z,54.76
2019-03-31T22:39:40.147Z,54.64
2019-03-31T22:42:09.965Z,56.63
2019-03-31T22:44:41.445Z,57.72
2019-03-31T22:47:11.982Z,58.78
2019-03-31T22:49:42.916Z,59.32
2019-03-31T22:52:12.694Z,58.69
2019-03-31T22:54:43.595Z,58.97
2019-03-31T22:57:13.387Z,59.01
2019-03-31T22:59:43.142Z,59.13
2019-03-31T23:02:12.934Z,59.35
2019-03-31T23:04:42.709Z,60.23
2019-03-31T23:07:12.452Z,61.62
2019-03-31T23:09:42.232Z,62.51
2019-03-31T23:12:12.018Z,63.86
2019-03-31T23:14:41.903Z,65.90
2019-03-31T23:17:11.662Z,66.93
2019-03-31T23:19:41.587Z,67.37
2019-03-31T23:22:11.354Z,67.61
2019-03-31T23:24:41.096Z,68.08
2019-03-31T23:27:12.128Z,69.98
2019-03-31T23:29:41.868Z,71.14
2019-03-31T23:32:11.634Z,71.74
2019-03-31T23:34:41.414Z,72.45
2019-03-31T23:37:11.209Z,72.59
2019-03-31T23:39:40.961Z,72.50
2019-03-31T23:42:10.752Z,72.67
2019-03-31T23:44:40.492Z,73.30
2019-03-31T23:47:10.226Z,74.13
2019-03-31T23:49:40.070Z,74.28
2019-03-31T23:52:09.881Z,75.01
2019-03-31T23:54:39.627Z,75.37
2019-03-31T23:57:09.410Z,75.32
2019-03-31T23:59:39.141Z,73.98
